createdAt,value
2023-05-09T00:01:58.670Z,102630.63
2023-05-09T00:05:35.106Z,102630.85
2023-05-09T00:09:13.081Z,102631.27
2023-05-09T00:12:50.753Z,102628.81
2023-05-09T00:16:29.061Z,102625.58
2023-05-09T00:20:11.973Z,102627.38
2023-05-09T00:23:43.172Z,102627.20
2023-05-09T00:27:20.658Z,102628.77
2023-05-09T00:30:58.862Z,102626.05
2023-05-09T00:34:36.858Z,102622.87
2023-05-09T00:38:14.069Z,102624.81
2023-05-09T00:41:52.219Z,102627.98
2023-05-09T00:45:29.221Z,102628.40
2023-05-09T00:49:07.073Z,102630.14
2023-05-09T00:52:44.828Z,102624.98
2023-05-09T00:56:22.632Z,102629.55
2023-05-09T01:00:01.079Z,102630.10
2023-05-09T01:03:41.245Z,102623.40
2023-05-09T01:07:37.030Z,102619.13
2023-05-09T01:11:07.329Z,102622.38
2023-05-09T01:14:55.573Z,102621.52
2023-05-09T01:18:35.202Z,102620.41
2023-05-09T01:21:52.673Z,102618.95
2023-05-09T01:25:49.567Z,102614.14
2023-05-09T01:29:34.502Z,102610.73
2023-05-09T01:32:52.412Z,102610.54
2023-05-09T01:36:33.301Z,102610.27
2023-05-09T01:40:13.570Z,102603.09
2023-05-09T01:44:06.007Z,102603.12
2023-05-09T01:47:41.115Z,102600.61
2023-05-09T01:51:00.371Z,102596.80
2023-05-09T01:58:15.048Z,102602.62
2023-05-09T02:01:53.398Z,102607.48
2023-05-09T02:05:31.169Z,102606.88
2023-05-09T02:09:07.107Z,102602.31
2023-05-09T02:12:44.510Z,102599.59
2023-05-09T02:16:22.726Z,102599.90
2023-05-09T02:20:00.029Z,102604.52
2023-05-09T02:23:37.525Z,102602.08
2023-05-09T02:27:15.942Z,102597.81
2023-05-09T02:30:54.882Z,102603.13
2023-05-09T02:34:31.057Z,102601.69
2023-05-09T02:38:08.373Z,102605.10
2023-05-09T02:41:49.727Z,102611.46
2023-05-09T02:45:23.521Z,102611.41
2023-05-09T02:49:01.078Z,102608.57
2023-05-09T02:52:38.595Z,102608.15
2023-05-09T02:56:16.958Z,102607.05
2023-05-09T02:59:53.963Z,102605.85
2023-05-09T03:03:34.844Z,102607.69
2023-05-09T03:07:09.406Z,102609.95
2023-05-09T03:10:48.007Z,102608.19
2023-05-09T03:14:24.858Z,102612.29
2023-05-09T03:18:02.601Z,102611.16
2023-05-09T03:21:42.000Z,102612.77
2023-05-09T03:25:18.062Z,102612.33
2023-05-09T03:28:55.925Z,102615.86
2023-05-09T03:32:33.541Z,102613.49
2023-05-09T03:36:10.701Z,102618.55
2023-05-09T03:39:48.980Z,102622.80
2023-05-09T03:43:26.706Z,102623.38
2023-05-09T03:47:04.064Z,102625.22
2023-05-09T03:50:41.842Z,102623.07
2023-05-09T03:54:19.468Z,102627.09
2023-05-09T03:57:56.750Z,102633.62
2023-05-09T04:01:34.565Z,102635.85
2023-05-09T04:05:12.610Z,102635.50
2023-05-09T04:08:50.002Z,102637.05
2023-05-09T04:12:27.592Z,102640.02
2023-05-09T04:19:43.409Z,102653.79
2023-05-09T04:23:20.559Z,102656.21
2023-05-09T04:26:58.518Z,102652.70
2023-05-09T04:30:36.788Z,102653.26
2023-05-09T04:34:13.695Z,102657.29
2023-05-09T04:37:52.019Z,102660.03
2023-05-09T04:41:29.587Z,102655.85
2023-05-09T04:45:07.523Z,102658.63
2023-05-09T04:48:44.640Z,102657.38
2023-05-09T04:55:59.676Z,102660.84
2023-05-09T04:59:38.211Z,102661.01
2023-05-09T05:03:15.402Z,102661.14
2023-05-09T05:06:52.725Z,102661.36
2023-05-09T05:10:30.762Z,102665.23
2023-05-09T05:14:08.009Z,102665.33
2023-05-09T05:17:45.732Z,102664.64
2023-05-09T05:21:23.484Z,102659.90
2023-05-09T05:25:01.454Z,102660.38
2023-05-09T05:28:39.059Z,102660.42
2023-05-09T05:32:16.401Z,102665.42
2023-05-09T05:35:54.474Z,102661.14
2023-05-09T05:39:32.031Z,102659.67
2023-05-09T05:43:09.085Z,102654.77
2023-05-09T05:46:47.340Z,102657.50
2023-05-09T05:50:24.556Z,102655.56
2023-05-09T05:54:02.506Z,102661.44
2023-05-09T05:57:40.550Z,102660.59
2023-05-09T06:01:18.021Z,102656.95
2023-05-09T06:04:56.120Z,102661.35
2023-05-09T06:08:33.106Z,102659.48
2023-05-09T06:12:12.136Z,102656.58
2023-05-09T06:15:48.419Z,102649.23
2023-05-09T06:19:26.646Z,102652.01
2023-05-09T06:23:03.843Z,102653.41
2023-05-09T06:26:41.962Z,102656.85
2023-05-09T06:30:26.414Z,102655.88
2023-05-09T06:33:57.565Z,102651.05
2023-05-09T06:37:53.299Z,102651.84
2023-05-09T06:41:12.379Z,102649.84
2023-05-09T06:44:49.812Z,102647.78
2023-05-09T06:48:27.706Z,102649.05
2023-05-09T06:52:05.363Z,102645.79
2023-05-09T06:55:42.848Z,102646.26
2023-05-09T06:59:20.723Z,102641.35
2023-05-09T07:03:17.449Z,102641.08
2023-05-09T07:06:36.315Z,102635.88
2023-05-09T07:10:13.480Z,102635.13
2023-05-09T07:14:10.391Z,102634.16
2023-05-09T07:21:06.749Z,102630.64
2023-05-09T07:24:44.709Z,102629.46
2023-05-09T07:28:22.072Z,102627.58
2023-05-09T07:31:59.410Z,102625.36
2023-05-09T07:35:37.749Z,102621.65
2023-05-09T07:39:14.829Z,102620.43
2023-05-09T07:42:55.269Z,102622.58
2023-05-09T07:46:30.677Z,102616.30
2023-05-09T07:50:08.633Z,102618.78
2023-05-09T07:53:45.692Z,102618.88
2023-05-09T07:57:23.536Z,102617.16
2023-05-09T08:01:01.301Z,102612.30
2023-05-09T08:04:39.202Z,102612.14
2023-05-09T08:08:16.187Z,102609.02
2023-05-09T08:11:53.810Z,102609.50
2023-05-09T08:15:32.610Z,102610.05
2023-05-09T08:19:09.661Z,102605.33
2023-05-09T08:22:47.034Z,102599.68
2023-05-09T08:26:44.475Z,102599.76
2023-05-09T08:30:02.483Z,102594.92
2023-05-09T08:33:41.779Z,102588.31
2023-05-09T08:37:17.924Z,102589.16
2023-05-09T08:41:02.172Z,102580.53
2023-05-09T08:44:33.058Z,102576.98
2023-05-09T08:48:31.307Z,102571.69
2023-05-09T08:51:48.988Z,102572.61
2023-05-09T08:55:27.752Z,102571.17
2023-05-09T08:59:05.902Z,102571.02
2023-05-09T09:02:42.595Z,102574.36
2023-05-09T09:06:21.615Z,102572.27
2023-05-09T09:09:58.990Z,102569.10
2023-05-09T09:13:38.933Z,102563.78
2023-05-09T09:17:18.758Z,102566.30
2023-05-09T09:20:58.054Z,102566.30
2023-05-09T09:24:27.775Z,102563.81
2023-05-09T09:28:05.992Z,102558.15
2023-05-09T09:31:47.623Z,102557.95
2023-05-09T09:35:20.619Z,102555.84
2023-05-09T09:39:06.751Z,102554.58
2023-05-09T09:42:49.108Z,102551.02
2023-05-09T09:46:17.454Z,102548.36
2023-05-09T09:49:51.844Z,102548.22
2023-05-09T09:53:32.128Z,102546.09
2023-05-09T10:00:46.314Z,102544.50
2023-05-09T10:04:22.966Z,102537.94
2023-05-09T10:08:04.886Z,102531.01
2023-05-09T10:11:37.491Z,102526.70
2023-05-09T10:15:21.885Z,102521.14
2023-05-09T10:18:53.405Z,102514.97
2023-05-09T10:22:34.045Z,102510.58
2023-05-09T10:26:23.486Z,102502.80
2023-05-09T10:29:51.824Z,102489.85
2023-05-09T10:33:48.093Z,102490.91
2023-05-09T10:37:04.248Z,102479.20
2023-05-09T10:40:41.419Z,102479.20
2023-05-09T10:44:19.198Z,102481.02
2023-05-09T10:47:57.392Z,102480.31
2023-05-09T10:51:34.130Z,102473.74
2023-05-09T10:55:12.958Z,102468.44
2023-05-09T10:58:49.166Z,102465.05
2023-05-09T11:02:31.299Z,102457.95
2023-05-09T11:06:04.556Z,102454.37
2023-05-09T11:09:42.254Z,102450.63
2023-05-09T11:13:24.003Z,102441.05
2023-05-09T11:16:59.905Z,102436.08
2023-05-09T11:20:36.639Z,102432.64
2023-05-09T11:24:17.365Z,102425.00
2023-05-09T11:27:50.858Z,102428.29
2023-05-09T11:31:30.999Z,102423.09
2023-05-09T11:35:09.657Z,102418.31
2023-05-09T11:38:43.860Z,102414.50
2023-05-09T11:42:23.146Z,102409.58
2023-05-09T11:45:59.792Z,102404.52
2023-05-09T11:49:37.442Z,102397.23
2023-05-09T11:53:14.462Z,102391.85
2023-05-09T11:56:51.927Z,102386.02
2023-05-09T12:00:31.953Z,102373.15
2023-05-09T12:07:45.375Z,102367.52
2023-05-09T12:11:24.468Z,102360.89
2023-05-09T12:15:07.901Z,102352.10
2023-05-09T12:18:38.330Z,102349.42
2023-05-09T12:22:16.826Z,102342.92
2023-05-09T12:25:55.172Z,102342.05
2023-05-09T12:29:31.901Z,102337.66
2023-05-09T12:33:10.861Z,102337.84
2023-05-09T12:36:51.738Z,102328.24
2023-05-09T12:40:25.272Z,102325.11
2023-05-09T12:44:02.314Z,102319.88
2023-05-09T12:47:42.003Z,102311.88
2023-05-09T12:51:22.716Z,102307.27
2023-05-09T12:54:54.805Z,102305.38
2023-05-09T13:02:10.967Z,102291.89
2023-05-09T13:05:59.357Z,102292.66
2023-05-09T13:09:26.669Z,102286.61
2023-05-09T13:13:04.502Z,102283.64
2023-05-09T13:16:41.464Z,102276.05
2023-05-09T13:20:19.450Z,102272.48
2023-05-09T13:23:56.966Z,102269.86
2023-05-09T13:27:34.405Z,102259.80
2023-05-09T13:31:11.754Z,102251.52
2023-05-09T13:34:49.156Z,102239.83
2023-05-09T13:38:30.799Z,102233.96
2023-05-09T13:42:04.293Z,102233.23
2023-05-09T13:45:42.535Z,102231.27
2023-05-09T13:49:38.472Z,102230.38
2023-05-09T13:52:57.483Z,102227.38
2023-05-09T13:56:35.560Z,102226.91
2023-05-09T14:00:15.555Z,102218.70
2023-05-09T14:03:50.455Z,102208.27
2023-05-09T14:07:28.239Z,102203.83
2023-05-09T14:11:06.117Z,102198.91
2023-05-09T14:14:43.582Z,102193.27
2023-05-09T14:18:21.442Z,102185.08
2023-05-09T14:21:59.028Z,102179.73
2023-05-09T14:25:36.493Z,102180.39
2023-05-09T14:32:51.832Z,102170.52
2023-05-09T14:36:30.215Z,102172.77
2023-05-09T14:40:08.717Z,102170.78
2023-05-09T14:43:44.949Z,102166.89
2023-05-09T14:47:22.967Z,102169.34
2023-05-09T14:51:02.029Z,102163.39
2023-05-09T14:54:37.961Z,102156.67
2023-05-09T14:58:16.401Z,102147.77
2023-05-09T15:01:53.767Z,102148.80
2023-05-09T15:05:31.198Z,102142.00
2023-05-09T15:09:08.658Z,102140.70
2023-05-09T15:12:47.542Z,102134.35
2023-05-09T15:20:03.000Z,102128.66
2023-05-09T15:23:40.031Z,102118.91
2023-05-09T15:27:17.196Z,102116.39
2023-05-09T15:30:55.047Z,102111.55
2023-05-09T15:34:32.313Z,102107.00
2023-05-09T15:38:12.417Z,102098.89
2023-05-09T15:41:47.848Z,102092.81
2023-05-09T15:45:25.609Z,102090.84
2023-05-09T15:49:03.660Z,102084.60
2023-05-09T15:52:40.943Z,102080.67
2023-05-09T15:56:18.627Z,102073.85
2023-05-09T15:59:56.283Z,102063.44
2023-05-09T16:07:11.848Z,102052.77
2023-05-09T16:10:49.582Z,102049.69
2023-05-09T16:14:27.601Z,102053.20
2023-05-09T16:18:04.513Z,102048.84
2023-05-09T16:21:42.506Z,102040.91
2023-05-09T16:25:20.085Z,102033.45
2023-05-09T16:28:57.955Z,102034.24
2023-05-09T16:32:54.115Z,102025.21
2023-05-09T16:36:16.556Z,102019.38
2023-05-09T16:39:50.459Z,102019.17
2023-05-09T16:43:28.863Z,102011.80
2023-05-09T16:47:06.329Z,102009.68
2023-05-09T16:50:45.604Z,102008.33
2023-05-09T16:54:21.779Z,102006.27
2023-05-09T16:57:59.204Z,102000.83
2023-05-09T17:01:36.845Z,101993.61
2023-05-09T17:05:14.573Z,101993.72
2023-05-09T17:08:54.544Z,101985.91
2023-05-09T17:12:30.568Z,101982.73
2023-05-09T17:16:07.311Z,101977.30
2023-05-09T17:19:45.805Z,101976.20
2023-05-09T17:23:22.803Z,101972.86
2023-05-09T17:27:13.067Z,101967.92
2023-05-09T17:30:39.816Z,101961.27
2023-05-09T17:34:15.813Z,101961.69
2023-05-09T17:37:53.421Z,101959.32
2023-05-09T17:41:31.551Z,101957.90
2023-05-09T17:45:11.026Z,101961.48
2023-05-09T17:48:48.159Z,101961.69
2023-05-09T17:52:23.906Z,101963.55
2023-05-09T17:56:03.067Z,101964.44
2023-05-09T17:59:41.538Z,101957.81
2023-05-09T18:03:18.628Z,101953.19
2023-05-09T18:06:55.718Z,101955.36
2023-05-09T18:10:54.150Z,101958.66
2023-05-09T18:14:10.386Z,101962.28
2023-05-09T18:17:49.588Z,101962.14
2023-05-09T18:21:25.823Z,101959.58
2023-05-09T18:25:02.997Z,101962.06
2023-05-09T18:28:40.957Z,101960.73
2023-05-09T18:32:19.492Z,101959.58
2023-05-09T18:35:56.265Z,101963.00
2023-05-09T18:39:33.884Z,101959.98
2023-05-09T18:43:11.937Z,101958.16
2023-05-09T18:46:49.391Z,101965.39
2023-05-09T18:50:30.763Z,101959.65
2023-05-09T18:54:05.284Z,101955.88
2023-05-09T18:57:42.030Z,101963.37
2023-05-09T19:01:20.074Z,101963.35
2023-05-09T19:04:57.539Z,101960.00
2023-05-09T19:08:35.298Z,101961.55
2023-05-09T19:12:13.208Z,101964.34
2023-05-09T19:15:50.894Z,101962.92
2023-05-09T19:19:28.491Z,101957.81
2023-05-09T19:23:06.133Z,101957.52
2023-05-09T19:26:43.564Z,101958.30
2023-05-09T19:30:21.655Z,101950.47
2023-05-09T19:33:59.002Z,101950.23
2023-05-09T19:37:37.692Z,101946.86
2023-05-09T19:41:14.543Z,101947.88
2023-05-09T19:44:54.684Z,101947.89
2023-05-09T19:48:29.774Z,101953.92
2023-05-09T19:52:07.379Z,101944.63
2023-05-09T19:55:47.185Z,101949.35
2023-05-09T19:59:23.443Z,101947.09
2023-05-09T20:03:00.397Z,101944.34
2023-05-09T20:06:51.631Z,101948.10
2023-05-09T20:10:16.313Z,101947.81
2023-05-09T20:13:53.482Z,101945.79
2023-05-09T20:17:31.478Z,101946.53
2023-05-09T20:21:10.120Z,101946.15
2023-05-09T20:24:46.611Z,101951.92
2023-05-09T20:28:24.399Z,101950.13
2023-05-09T20:32:01.610Z,101955.04
2023-05-09T20:35:45.739Z,101950.81
2023-05-09T20:39:18.787Z,101946.74
2023-05-09T20:42:54.561Z,101951.45
2023-05-09T20:46:32.637Z,101941.85
2023-05-09T20:50:10.248Z,101943.17
2023-05-09T20:53:47.835Z,101941.60
2023-05-09T20:57:25.775Z,101939.84
2023-05-09T21:01:03.840Z,101943.52
2023-05-09T21:04:40.947Z,101938.62
2023-05-09T21:08:18.586Z,101939.66
2023-05-09T21:11:56.271Z,101940.83
2023-05-09T21:15:33.888Z,101936.65
2023-05-09T21:19:11.419Z,101936.13
2023-05-09T21:22:49.725Z,101932.42
2023-05-09T21:26:29.465Z,101928.88
2023-05-09T21:33:42.141Z,101931.17
2023-05-09T21:37:20.229Z,101931.69
2023-05-09T21:40:58.416Z,101929.77
2023-05-09T21:44:35.941Z,101934.11
2023-05-09T21:48:12.726Z,101934.05
2023-05-09T21:51:50.633Z,101929.36
2023-05-09T21:55:28.278Z,101931.20
2023-05-09T21:59:06.295Z,101931.70
2023-05-09T22:02:44.069Z,101933.06
2023-05-09T22:06:21.556Z,101933.11
2023-05-09T22:09:59.312Z,101929.20
2023-05-09T22:13:36.607Z,101931.08
2023-05-09T22:17:14.395Z,101929.73
2023-05-09T22:20:52.232Z,101931.80
2023-05-09T22:24:29.636Z,101929.27
2023-05-09T22:31:45.889Z,101929.86
2023-05-09T22:35:22.853Z,101929.88
2023-05-09T22:39:00.352Z,101930.64
2023-05-09T22:46:15.469Z,101928.29
2023-05-09T22:49:53.730Z,101927.30
2023-05-09T22:53:50.234Z,101923.73
2023-05-09T22:57:08.736Z,101924.15
2023-05-09T23:00:46.129Z,101920.70
2023-05-09T23:04:23.958Z,101923.42
2023-05-09T23:08:01.739Z,101922.45
2023-05-09T23:11:39.293Z,101924.11
2023-05-09T23:15:16.786Z,101925.05
2023-05-09T23:18:54.711Z,101925.89
2023-05-09T23:22:32.477Z,101923.20
2023-05-09T23:26:10.330Z,101921.73
2023-05-09T23:29:47.600Z,101915.54
2023-05-09T23:33:25.584Z,101920.08
2023-05-09T23:37:03.853Z,101918.48
2023-05-09T23:40:40.793Z,101918.12
2023-05-09T23:44:18.056Z,101917.59
2023-05-09T23:48:15.057Z,101914.92
2023-05-09T23:51:33.393Z,101918.04
2023-05-09T23:55:11.741Z,101912.73
2023-05-09T23:58:48.789Z,101912.62
